Time;durP1;ratioP1;P1;durP2;ratioP2;P2;SDS_P1;SDS_P2;PMS_P1;PMS_P2;Temp;Humidity;BMP_temperature;BMP_pressure;BME280_temperature;BME280_humidity;BME280_pressure;Samples;Min_cycle;Max_cycle;Signal;HPM_P1;HPM_P2
2022/03/27 00:01:30;;;;;;;23.30;13.70;;;9.60;99.90;;;;;;5090556;28;20028;-62
2022/03/27 00:03:55;;;;;;;22.77;13.18;;;9.50;99.90;;;;;;5090224;28;20017;-62
2022/03/27 00:06:21;;;;;;;21.92;13.07;;;9.50;99.90;;;;;;5090027;28;20054;-63
2022/03/27 00:08:47;;;;;;;23.10;13.60;;;9.40;99.90;;;;;;5089733;28;20028;-61
2022/03/27 00:11:25;;;;;;;22.15;13.40;;;9.40;99.90;;;;;;5090006;28;20032;-63
2022/03/27 00:14:05;;;;;;;21.90;12.70;;;9.40;99.90;;;;;;5089864;28;20047;-63
2022/03/27 00:16:32;;;;;;;25.60;13.65;;;9.30;99.90;;;;;;5089729;28;20651;-63
2022/03/27 00:18:57;;;;;;;23.42;13.55;;;9.30;99.90;;;;;;5089529;28;20028;-63
2022/03/27 00:21:23;;;;;;;23.38;13.15;;;9.20;99.90;;;;;;5089866;28;20553;-63
2022/03/27 00:23:50;;;;;;;23.40;14.55;;;9.20;99.90;;;;;;5088320;28;20020;-60
2022/03/27 00:26:16;;;;;;;22.80;13.88;;;9.20;99.90;;;;;;5089578;28;20028;-63
2022/03/27 00:28:43;;;;;;;24.73;14.18;;;9.30;99.90;;;;;;5089413;28;20071;-63
2022/03/27 00:31:10;;;;;;;24.50;13.23;;;9.30;99.90;;;;;;5090514;28;20511;-63
2022/03/27 00:33:37;;;;;;;28.35;14.60;;;9.30;99.90;;;;;;5091919;28;20027;-63
2022/03/27 00:36:10;;;;;;;22.86;14.12;;;9.40;99.90;;;;;;4934433;28;10000494;-63
2022/03/27 00:38:37;;;;;;;26.50;15.45;;;9.50;99.90;;;;;;5086235;28;20240;-63
2022/03/27 00:41:04;;;;;;;23.02;14.02;;;9.60;99.90;;;;;;4759973;22;10000279;-64
2022/03/27 00:43:30;;;;;;;22.48;13.75;;;9.60;99.90;;;;;;5131673;27;20027;-63
2022/03/27 00:45:56;;;;;;;23.85;13.52;;;9.70;99.90;;;;;;5132928;27;20022;-64
2022/03/27 00:48:22;;;;;;;23.63;13.50;;;9.80;99.90;;;;;;5134520;27;20023;-65
2022/03/27 00:50:49;;;;;;;22.35;13.13;;;9.80;99.90;;;;;;5134689;27;20180;-64
2022/03/27 00:53:16;;;;;;;23.65;14.15;;;9.80;99.90;;;;;;5133192;27;20023;-65
2022/03/27 00:55:46;;;;;;;24.10;13.27;;;9.90;99.90;;;;;;5133237;27;20032;-66
2022/03/27 00:58:13;;;;;;;24.23;14.15;;;10.00;99.90;;;;;;5133335;27;20023;-65
2022/03/27 01:00:38;;;;;;;21.27;13.65;;;9.90;99.90;;;;;;5134178;27;20410;-64
2022/03/27 01:03:15;;;;;;;23.52;14.98;;;9.90;99.90;;;;;;5133117;27;20030;-65
2022/03/27 01:05:42;;;;;;;21.42;13.35;;;9.80;99.90;;;;;;5134063;27;20471;-65
2022/03/27 01:08:10;;;;;;;23.40;13.52;;;9.70;99.90;;;;;;5134429;27;20023;-65
2022/03/27 01:10:36;;;;;;;22.55;13.45;;;9.70;99.90;;;;;;5134007;27;20039;-64
2022/03/27 01:13:12;;;;;;;22.25;12.93;;;9.80;99.90;;;;;;5134214;27;20118;-64
2022/03/27 01:15:43;;;;;;;22.50;13.20;;;9.70;99.90;;;;;;5132777;27;20023;-64
2022/03/27 01:18:08;;;;;;;25.55;13.80;;;9.60;99.90;;;;;;5133878;27;20019;-65
2022/03/27 01:20:36;;;;;;;24.08;13.27;;;9.60;99.90;;;;;;5134006;27;20035;-65
2022/03/27 01:23:06;;;;;;;20.48;12.77;;;9.60;99.90;;;;;;5134133;27;20521;-64
2022/03/27 01:25:32;;;;;;;21.77;12.95;;;9.60;99.90;;;;;;5133658;27;20486;-65
2022/03/27 01:27:57;;;;;;;24.17;13.63;;;9.60;99.90;;;;;;5134074;27;20076;-64
2022/03/27 01:30:23;;;;;;;23.60;13.95;;;9.60;99.90;;;;;;5133721;27;20105;-62
2022/03/27 01:32:51;;;;;;;24.50;14.18;;;9.70;99.90;;;;;;5133635;27;20502;-63
2022/03/27 01:35:18;;;;;;;22.15;13.40;;;9.70;99.90;;;;;;5133943;27;20035;-64
2022/03/27 01:37:45;;;;;;;25.10;15.05;;;9.70;99.90;;;;;;5132405;27;20020;-65
2022/03/27 01:40:11;;;;;;;24.40;14.77;;;9.60;99.90;;;;;;5133900;27;20034;-65
2022/03/27 01:42:36;;;;;;;23.92;15.05;;;9.60;99.90;;;;;;5132136;27;20031;-65
2022/03/27 01:45:04;;;;;;;26.27;16.08;;;9.60;99.90;;;;;;5132485;27;20034;-65
2022/03/27 01:47:30;;;;;;;25.05;14.80;;;9.70;99.90;;;;;;5133633;27;20104;-65
2022/03/27 01:49:55;;;;;;;26.95;15.18;;;9.60;99.90;;;;;;5133498;27;20061;-64
2022/03/27 01:52:21;;;;;;;25.80;15.88;;;9.60;99.90;;;;;;5133527;27;20102;-65
2022/03/27 01:54:47;;;;;;;27.90;16.00;;;9.60;99.90;;;;;;5132346;27;20554;-65
2022/03/27 01:57:13;;;;;;;25.73;16.00;;;9.60;99.90;;;;;;5133956;27;20058;-63
2022/03/27 01:59:39;;;;;;;24.33;14.38;;;9.60;99.90;;;;;;5133367;27;20387;-64
2022/03/27 02:02:05;;;;;;;24.25;14.18;;;9.50;99.90;;;;;;5132125;27;20023;-65
2022/03/27 02:04:30;;;;;;;25.35;15.68;;;9.50;99.90;;;;;;5132021;27;20050;-65
2022/03/27 02:06:56;;;;;;;27.30;15.73;;;9.50;99.90;;;;;;5132134;27;20100;-64
2022/03/27 02:09:21;;;;;;;24.08;14.90;;;9.60;99.90;;;;;;5133546;27;20041;-64
2022/03/27 02:11:47;;;;;;;24.85;14.98;;;9.40;99.90;;;;;;5133772;27;20023;-65
2022/03/27 02:14:13;;;;;;;26.92;15.65;;;9.40;99.90;;;;;;5133223;27;20023;-64
2022/03/27 02:16:39;;;;;;;25.13;15.38;;;9.40;99.90;;;;;;5133259;27;20030;-65
2022/03/27 02:19:08;;;;;;;23.90;15.00;;;9.50;99.90;;;;;;5131957;27;20646;-65
2022/03/27 02:21:34;;;;;;;25.50;16.17;;;9.50;99.90;;;;;;5133489;27;20038;-65
2022/03/27 02:24:03;;;;;;;24.63;15.23;;;9.60;99.90;;;;;;5133717;27;20023;-64
2022/03/27 02:26:29;;;;;;;24.73;14.63;;;9.50;99.90;;;;;;5132215;27;20022;-64
2022/03/27 02:28:55;;;;;;;24.58;15.32;;;9.50;99.90;;;;;;5131998;28;20027;-64
2022/03/27 02:31:20;;;;;;;24.35;14.68;;;9.40;99.90;;;;;;5131841;28;20034;-64
2022/03/27 02:33:46;;;;;;;26.92;14.82;;;9.30;99.90;;;;;;5133028;28;20019;-65
2022/03/27 02:36:12;;;;;;;23.30;13.98;;;9.20;99.90;;;;;;5133337;28;20043;-64
2022/03/27 02:38:38;;;;;;;24.85;15.40;;;9.10;99.90;;;;;;5133708;27;20487;-64
2022/03/27 02:41:04;;;;;;;24.67;14.13;;;9.10;99.90;;;;;;5133178;28;20035;-65
2022/03/27 02:43:30;;;;;;;23.63;13.68;;;9.00;99.90;;;;;;5133416;28;20076;-63
2022/03/27 02:45:56;;;;;;;24.70;15.13;;;9.10;99.90;;;;;;5133373;27;20107;-63
2022/03/27 02:48:22;;;;;;;25.63;15.38;;;9.10;99.90;;;;;;5133226;28;20059;-63
2022/03/27 02:50:47;;;;;;;26.05;15.23;;;8.90;99.90;;;;;;5132706;27;20031;-64
2022/03/27 02:53:13;;;;;;;25.33;15.60;;;8.90;99.90;;;;;;5132985;28;20030;-64
2022/03/27 02:55:39;;;;;;;23.48;14.10;;;8.80;99.90;;;;;;5133121;28;20023;-64
2022/03/27 02:58:05;;;;;;;23.30;13.73;;;8.80;99.90;;;;;;5131467;28;20081;-64
2022/03/27 03:00:32;;;;;;;28.45;15.48;;;8.80;99.90;;;;;;5132762;27;20109;-63
2022/03/27 03:02:57;;;;;;;26.52;15.85;;;8.80;99.90;;;;;;5131636;28;20391;-64
2022/03/27 03:05:23;;;;;;;25.45;15.95;;;8.80;99.90;;;;;;5132923;28;20027;-64
2022/03/27 03:07:50;;;;;;;27.25;15.27;;;8.70;99.90;;;;;;5131682;28;20023;-64
2022/03/27 03:10:16;;;;;;;25.50;15.55;;;8.70;99.90;;;;;;5132815;27;20056;-64
2022/03/27 03:12:42;;;;;;;26.35;15.57;;;8.60;99.90;;;;;;5132778;27;20057;-64
2022/03/27 03:15:08;;;;;;;24.27;14.52;;;8.60;99.90;;;;;;5131441;28;20095;-64
2022/03/27 03:17:35;;;;;;;24.95;14.73;;;8.60;99.90;;;;;;5131392;28;20413;-64
2022/03/27 03:20:01;;;;;;;25.42;15.38;;;8.70;99.90;;;;;;5131301;28;20019;-64
2022/03/27 03:22:27;;;;;;;25.13;13.80;;;8.70;99.90;;;;;;5132661;27;20032;-64
2022/03/27 03:24:52;;;;;;;24.90;14.52;;;8.70;99.90;;;;;;5133567;27;20038;-64
2022/03/27 03:27:18;;;;;;;25.05;15.75;;;8.70;99.90;;;;;;5136397;27;20023;-63
2022/03/27 03:29:44;;;;;;;26.23;14.80;;;8.60;99.90;;;;;;5134953;27;20030;-64
2022/03/27 03:32:09;;;;;;;24.50;14.30;;;8.60;99.90;;;;;;5134904;27;20026;-63
2022/03/27 03:34:35;;;;;;;27.20;14.73;;;8.60;99.90;;;;;;5136458;27;20019;-64
2022/03/27 03:37:01;;;;;;;25.58;14.95;;;8.50;99.90;;;;;;5136367;27;20019;-64
2022/03/27 03:39:27;;;;;;;25.55;15.25;;;8.50;99.90;;;;;;5134757;27;20494;-64
2022/03/27 03:41:52;;;;;;;25.92;14.82;;;8.50;99.90;;;;;;5135903;27;20083;-64
2022/03/27 03:44:18;;;;;;;25.25;16.40;;;8.50;99.90;;;;;;5136093;27;20019;-64
2022/03/27 03:46:44;;;;;;;25.42;15.95;;;8.50;99.90;;;;;;5135961;27;20019;-63
2022/03/27 03:49:09;;;;;;;25.25;15.18;;;8.60;99.90;;;;;;5135980;27;20015;-64
2022/03/27 03:51:36;;;;;;;25.95;15.05;;;8.60;99.90;;;;;;5136467;27;20102;-64
2022/03/27 03:54:03;;;;;;;24.67;15.45;;;8.60;99.90;;;;;;5137569;27;20023;-64
2022/03/27 03:56:29;;;;;;;30.92;16.25;;;8.50;99.90;;;;;;5136090;27;20436;-63
2022/03/27 03:58:55;;;;;;;23.95;14.90;;;8.50;99.90;;;;;;5137387;27;20023;-63
2022/03/27 04:01:20;;;;;;;29.60;17.25;;;8.40;99.90;;;;;;5137583;27;20027;-64
2022/03/27 04:03:46;;;;;;;26.02;16.17;;;8.40;99.90;;;;;;5134845;27;20024;-63
2022/03/27 04:06:12;;;;;;;24.98;14.10;;;8.30;99.90;;;;;;5135761;27;20467;-64
2022/03/27 04:08:37;;;;;;;29.33;15.85;;;8.30;99.90;;;;;;5135848;27;20034;-63
2022/03/27 04:11:04;;;;;;;26.38;15.90;;;8.10;99.90;;;;;;5135357;27;20097;-64
2022/03/27 04:13:30;;;;;;;26.42;15.90;;;8.10;99.90;;;;;;5135611;27;20023;-64
2022/03/27 04:15:56;;;;;;;28.90;17.48;;;8.10;99.90;;;;;;5135592;27;20608;-64
2022/03/27 04:18:22;;;;;;;28.65;16.55;;;8.10;99.90;;;;;;5135497;27;20425;-63
2022/03/27 04:20:48;;;;;;;26.98;16.23;;;8.10;99.90;;;;;;5135257;27;20023;-64
2022/03/27 04:23:14;;;;;;;27.48;17.25;;;8.10;99.90;;;;;;5135485;27;20501;-64
2022/03/27 04:25:40;;;;;;;31.63;17.33;;;8.10;99.90;;;;;;5135251;27;20110;-64
2022/03/27 04:28:07;;;;;;;30.73;18.05;;;8.10;99.90;;;;;;5135332;27;20106;-63
2022/03/27 04:30:33;;;;;;;36.15;19.38;;;8.10;99.90;;;;;;5134799;27;20084;-63
2022/03/27 04:32:59;;;;;;;33.05;19.13;;;8.10;99.90;;;;;;5134884;27;20084;-63
2022/03/27 04:35:25;;;;;;;31.15;18.42;;;8.10;99.90;;;;;;5134531;27;20444;-65
2022/03/27 04:37:51;;;;;;;35.15;18.23;;;8.10;99.90;;;;;;5134935;27;20019;-64
2022/03/27 04:40:18;;;;;;;37.33;20.48;;;8.10;99.90;;;;;;5133608;27;20020;-63
2022/03/27 04:42:44;;;;;;;35.03;20.65;;;8.20;99.90;;;;;;5134905;27;20043;-63
2022/03/27 04:45:11;;;;;;;35.38;20.67;;;8.10;99.90;;;;;;5135091;27;20478;-64
2022/03/27 04:47:37;;;;;;;38.40;19.63;;;8.10;99.90;;;;;;5135322;27;20094;-64
2022/03/27 04:50:04;;;;;;;37.13;19.77;;;8.10;99.90;;;;;;5134628;27;20509;-64
2022/03/27 04:52:30;;;;;;;31.98;17.50;;;8.10;99.90;;;;;;5134825;27;20406;-64
2022/03/27 04:54:56;;;;;;;33.97;19.80;;;8.20;99.90;;;;;;5134972;27;20023;-63
2022/03/27 04:57:22;;;;;;;34.83;20.33;;;8.20;99.90;;;;;;5134536;27;20136;-64
2022/03/27 04:59:48;;;;;;;39.60;20.40;;;8.10;99.90;;;;;;5133466;27;20031;-63
2022/03/27 05:02:14;;;;;;;32.75;18.63;;;8.20;99.90;;;;;;5134775;27;20023;-63
2022/03/27 05:04:41;;;;;;;34.47;19.88;;;8.20;99.90;;;;;;5134384;27;20027;-63
2022/03/27 05:07:07;;;;;;;35.65;19.52;;;8.10;99.90;;;;;;5134459;27;20043;-63
2022/03/27 05:09:33;;;;;;;37.90;21.15;;;8.10;99.90;;;;;;5132911;27;20027;-63
2022/03/27 05:11:58;;;;;;;35.20;20.50;;;8.10;99.90;;;;;;5134245;27;20042;-63
2022/03/27 05:14:24;;;;;;;36.33;20.85;;;8.00;99.90;;;;;;5134287;27;20027;-64
2022/03/27 05:16:50;;;;;;;38.45;21.00;;;8.00;99.90;;;;;;5134560;27;20032;-65
2022/03/27 05:19:17;;;;;;;34.00;18.83;;;7.90;99.90;;;;;;5133959;27;20458;-64
2022/03/27 05:21:42;;;;;;;36.40;20.55;;;7.90;99.90;;;;;;5132888;27;20031;-63
2022/03/27 05:24:09;;;;;;;36.97;19.42;;;7.90;99.90;;;;;;5133910;27;20467;-63
2022/03/27 05:26:35;;;;;;;33.45;19.52;;;7.90;99.90;;;;;;5134272;27;20031;-63
2022/03/27 05:29:04;;;;;;;34.20;19.60;;;7.90;99.90;;;;;;5132541;27;20506;-63
2022/03/27 05:31:30;;;;;;;33.45;18.92;;;7.90;99.90;;;;;;5133790;27;20035;-64
2022/03/27 05:33:55;;;;;;;36.35;19.35;;;7.90;99.90;;;;;;5132605;27;20027;-63
2022/03/27 05:36:21;;;;;;;32.72;17.63;;;8.00;99.90;;;;;;5133781;27;20475;-64
2022/03/27 05:38:47;;;;;;;34.13;19.10;;;7.90;99.90;;;;;;5132430;27;20114;-63
2022/03/27 05:41:13;;;;;;;36.78;20.33;;;7.90;99.90;;;;;;5132238;27;20031;-66
2022/03/27 05:43:39;;;;;;;35.03;19.10;;;7.90;99.90;;;;;;5133580;27;20030;-64
2022/03/27 05:46:05;;;;;;;32.30;17.88;;;7.80;99.90;;;;;;5132440;27;20031;-65
2022/03/27 05:48:31;;;;;;;34.40;18.98;;;7.80;99.90;;;;;;5132795;27;20102;-64
2022/03/27 05:50:57;;;;;;;31.55;19.08;;;7.70;99.90;;;;;;5133404;27;20106;-63
2022/03/27 05:53:23;;;;;;;30.52;17.50;;;7.70;99.90;;;;;;5133592;27;20024;-65
2022/03/27 05:55:48;;;;;;;30.17;17.23;;;7.70;99.90;;;;;;5133374;27;20012;-65
2022/03/27 05:58:16;;;;;;;33.13;18.55;;;7.70;99.90;;;;;;5133496;27;20019;-65
2022/03/27 06:00:42;;;;;;;30.85;18.17;;;7.70;99.90;;;;;;5133203;27;20027;-64
2022/03/27 06:03:07;;;;;;;30.00;17.73;;;7.70;99.90;;;;;;5133641;27;20334;-65
2022/03/27 06:05:33;;;;;;;29.15;16.70;;;7.80;99.90;;;;;;5133558;27;20023;-64
2022/03/27 06:07:59;;;;;;;29.35;16.08;;;7.80;99.90;;;;;;5132283;27;20023;-64
2022/03/27 06:10:31;;;;;;;30.13;16.17;;;7.80;99.90;;;;;;5133389;27;20491;-64
2022/03/27 06:12:57;;;;;;;26.73;15.77;;;7.70;99.90;;;;;;5133996;27;20483;-64
2022/03/27 06:15:24;;;;;;;30.95;18.02;;;7.80;99.90;;;;;;5133576;27;20019;-64
2022/03/27 06:17:51;;;;;;;26.17;15.20;;;7.80;99.90;;;;;;5133752;27;20475;-64
2022/03/27 06:20:22;;;;;;;26.08;15.27;;;7.70;99.90;;;;;;5133501;27;20114;-65
2022/03/27 06:22:49;;;;;;;28.58;16.38;;;7.70;99.90;;;;;;5133374;27;20386;-65
2022/03/27 06:25:20;;;;;;;29.40;16.38;;;7.70;99.90;;;;;;5133939;27;20034;-64
2022/03/27 06:27:48;;;;;;;28.55;15.20;;;7.70;99.90;;;;;;5133719;27;20023;-65
2022/03/27 06:30:15;;;;;;;27.98;15.98;;;7.80;99.90;;;;;;5133373;27;20389;-63
2022/03/27 06:32:42;;;;;;;29.53;14.90;;;7.70;99.90;;;;;;5133449;27;20402;-65
2022/03/27 06:35:09;;;;;;;26.67;14.23;;;7.80;99.90;;;;;;5133222;27;20030;-65
2022/03/27 06:37:35;;;;;;;26.33;14.02;;;7.80;99.90;;;;;;5133351;27;20023;-65
2022/03/27 06:40:02;;;;;;;25.48;15.07;;;7.90;99.90;;;;;;5132991;28;20027;-65
2022/03/27 06:42:28;;;;;;;28.10;15.80;;;8.00;99.90;;;;;;5141788;22;20118;-64
2022/03/27 06:44:54;;;;;;;26.90;15.40;;;8.10;99.90;;;;;;5110720;28;20058;-64
2022/03/27 06:47:21;;;;;;;27.38;15.98;;;8.20;99.90;;;;;;5110995;28;20069;-64
2022/03/27 06:49:48;;;;;;;25.10;14.07;;;8.30;99.90;;;;;;5111245;28;20027;-63
2022/03/27 06:52:15;;;;;;;27.17;16.30;;;8.30;99.90;;;;;;5111202;28;20031;-63
2022/03/27 06:54:42;;;;;;;32.53;16.17;;;8.40;99.90;;;;;;5111009;28;20028;-63
2022/03/27 06:57:08;;;;;;;28.88;15.05;;;8.40;99.90;;;;;;5109622;28;20026;-63
2022/03/27 07:05:03;;;;;;;28.50;14.80;;;8.40;99.90;;;;;;5115173;28;20054;-64
2022/03/27 07:07:30;;;;;;;30.13;15.68;;;8.40;99.90;;;;;;5114763;28;20027;-63
2022/03/27 07:09:55;;;;;;;28.80;15.57;;;8.40;99.90;;;;;;5112929;28;20024;-63
2022/03/27 07:12:21;;;;;;;28.42;16.90;;;8.40;99.90;;;;;;5114954;28;20045;-64
2022/03/27 07:14:47;;;;;;;26.45;15.57;;;8.50;99.90;;;;;;5114601;28;20020;-64
2022/03/27 07:17:17;;;;;;;27.55;15.93;;;8.50;99.90;;;;;;5114848;28;20020;-64
2022/03/27 07:19:46;;;;;;;29.13;15.32;;;8.50;99.90;;;;;;5115535;28;20034;-64
2022/03/27 07:22:11;;;;;;;28.83;16.45;;;8.50;99.90;;;;;;5114818;28;20028;-62
2022/03/27 07:24:37;;;;;;;32.10;17.17;;;8.40;99.90;;;;;;5114547;28;20541;-64
2022/03/27 07:27:04;;;;;;;27.83;15.70;;;8.40;99.90;;;;;;5114280;28;20038;-63
2022/03/27 07:29:35;;;;;;;27.02;16.23;;;8.40;99.90;;;;;;5114137;28;20028;-63
2022/03/27 07:32:01;;;;;;;28.55;16.20;;;8.40;99.90;;;;;;5112738;28;20487;-62
2022/03/27 07:34:26;;;;;;;28.10;16.42;;;8.40;99.90;;;;;;5114104;28;20055;-62
2022/03/27 07:36:52;;;;;;;28.00;16.35;;;8.50;99.90;;;;;;5112897;28;20070;-61
2022/03/27 07:39:18;;;;;;;29.05;15.98;;;8.70;99.90;;;;;;5114001;28;20069;-61
2022/03/27 07:41:43;;;;;;;27.08;15.15;;;8.80;99.90;;;;;;5113784;28;20097;-61
2022/03/27 07:44:09;;;;;;;28.60;16.17;;;8.90;99.90;;;;;;5112605;28;20028;-62
2022/03/27 07:46:34;;;;;;;26.63;15.27;;;8.90;99.90;;;;;;5113998;28;20042;-62
2022/03/27 07:49:01;;;;;;;28.10;15.90;;;8.80;99.90;;;;;;5114276;28;20031;-57
2022/03/27 07:51:26;;;;;;;26.80;14.93;;;8.70;99.90;;;;;;5112798;28;20028;-60
2022/03/27 07:53:52;;;;;;;25.88;14.55;;;8.80;99.90;;;;;;5114143;28;20080;-60
2022/03/27 07:56:18;;;;;;;28.65;15.48;;;8.90;99.90;;;;;;5113743;28;20027;-62
2022/03/27 07:58:44;;;;;;;31.92;17.10;;;9.10;99.90;;;;;;5114192;28;20022;-62
2022/03/27 08:01:12;;;;;;;27.75;15.35;;;9.30;99.90;;;;;;5112734;28;20054;-62
2022/03/27 08:03:39;;;;;;;26.90;15.73;;;9.50;99.90;;;;;;5113977;28;20054;-62
2022/03/27 08:06:06;;;;;;;27.30;15.20;;;9.50;99.90;;;;;;5112724;28;20432;-63
2022/03/27 08:08:32;;;;;;;28.35;17.20;;;9.40;99.90;;;;;;5112830;28;20512;-62
2022/03/27 08:10:57;;;;;;;31.55;17.83;;;9.30;99.90;;;;;;5113094;28;20032;-63
2022/03/27 08:13:23;;;;;;;29.83;16.83;;;9.20;99.90;;;;;;5113918;28;20069;-62
2022/03/27 08:15:49;;;;;;;30.42;16.15;;;9.30;99.90;;;;;;5114328;28;20479;-63
2022/03/27 08:18:15;;;;;;;29.23;15.75;;;9.30;99.90;;;;;;5113725;28;20536;-63
2022/03/27 08:20:41;;;;;;;26.20;16.73;;;9.30;99.90;;;;;;5112442;28;20035;-63
2022/03/27 08:23:10;;;;;;;28.73;16.70;;;9.40;99.90;;;;;;5113778;28;20667;-63
2022/03/27 08:28:21;;;;;;;26.67;15.05;;;9.40;99.90;;;;;;5113540;28;20437;-63
2022/03/27 08:30:48;;;;;;;28.60;15.18;;;9.40;99.90;;;;;;5112033;28;20504;-61
2022/03/27 08:33:15;;;;;;;27.55;14.50;;;9.50;99.90;;;;;;5113547;28;20486;-60
2022/03/27 08:35:42;;;;;;;27.67;14.63;;;9.50;99.90;;;;;;5113030;28;20018;-61
2022/03/27 08:38:34;;;;;;;25.90;14.15;;;9.50;99.90;;;;;;5113261;28;20039;-61
2022/03/27 08:41:01;;;;;;;27.95;13.63;;;9.40;99.90;;;;;;5112903;28;20039;-63
2022/03/27 08:43:31;;;;;;;28.10;15.20;;;9.50;99.90;;;;;;5113295;28;20066;-62
2022/03/27 08:45:58;;;;;;;29.00;17.33;;;9.70;99.90;;;;;;4754746;28;10000549;-64
2022/03/27 08:48:24;;;;;;;28.65;15.10;;;9.70;99.90;;;;;;5089934;28;20085;-63
2022/03/27 08:51:20;;;;;;;25.73;13.60;;;9.70;99.90;;;;;;5102021;28;20075;-62
2022/03/27 08:54:11;;;;;;;26.77;15.05;;;10.00;99.90;;;;;;5104440;28;20460;-62
2022/03/27 08:56:36;;;;;;;26.40;15.10;;;10.20;99.90;;;;;;5089493;28;20477;-62
2022/03/27 08:59:06;;;;;;;24.33;13.52;;;10.40;99.90;;;;;;5090213;28;20020;-61
2022/03/27 09:01:32;;;;;;;27.33;16.02;;;10.40;99.90;;;;;;5097567;28;20168;-62
2022/03/27 09:03:58;;;;;;;24.67;13.50;;;10.60;99.90;;;;;;5098394;28;20788;-62
2022/03/27 09:06:25;;;;;;;24.27;13.30;;;10.40;99.90;;;;;;5099320;28;20426;-61
2022/03/27 09:08:51;;;;;;;26.02;14.93;;;10.50;99.90;;;;;;5098416;28;20802;-61
2022/03/27 09:11:19;;;;;;;25.23;13.88;;;10.50;99.90;;;;;;5096165;28;20023;-64
2022/03/27 09:13:49;;;;;;;25.02;13.93;;;10.70;99.90;;;;;;5099134;28;20020;-64
2022/03/27 09:16:16;;;;;;;25.92;15.48;;;10.60;99.90;;;;;;5099862;28;20050;-64
2022/03/27 09:18:53;;;;;;;25.33;14.40;;;10.70;99.90;;;;;;5098609;28;20031;-61
2022/03/27 09:21:21;;;;;;;25.75;14.65;;;10.70;99.90;;;;;;5097587;28;20085;-64
2022/03/27 09:23:58;;;;;;;25.08;14.07;;;10.70;99.90;;;;;;5096949;28;20079;-63
2022/03/27 09:26:24;;;;;;;23.42;14.20;;;10.70;99.90;;;;;;5097391;28;20043;-60
2022/03/27 09:28:53;;;;;;;24.27;13.82;;;10.90;99.90;;;;;;5103209;28;20032;-62
2022/03/27 09:31:19;;;;;;;23.55;14.13;;;11.00;99.90;;;;;;5109421;28;20031;-62
2022/03/27 09:33:52;;;;;;;24.90;13.32;;;11.10;99.90;;;;;;5105112;28;20050;-62
2022/03/27 09:36:44;;;;;;;23.92;13.02;;;10.90;99.90;;;;;;5089113;28;20107;-62
2022/03/27 09:39:17;;;;;;;23.52;13.45;;;11.00;99.90;;;;;;5086457;28;20860;-62
2022/03/27 09:41:44;;;;;;;23.40;13.07;;;11.00;99.90;;;;;;5087284;28;20062;-61
2022/03/27 09:44:20;;;;;;;23.70;13.68;;;11.20;99.90;;;;;;5090506;28;20396;-63
2022/03/27 09:47:12;;;;;;;24.40;13.55;;;11.40;99.90;;;;;;5102129;28;20688;-58
2022/03/27 09:49:46;;;;;;;27.02;15.30;;;11.40;99.90;;;;;;5097731;28;20740;-63
2022/03/27 09:52:18;;;;;;;24.20;15.25;;;11.60;99.90;;;;;;5097289;28;20027;-60
2022/03/27 09:54:47;;;;;;;23.73;13.27;;;11.70;99.90;;;;;;5096636;28;20023;-64
2022/03/27 09:57:34;;;;;;;24.05;13.60;;;11.80;99.90;;;;;;5095878;28;20016;-64
2022/03/27 10:00:12;;;;;;;23.15;14.15;;;12.00;99.90;;;;;;5099186;28;20020;-64
2022/03/27 10:02:38;;;;;;;25.67;14.70;;;12.20;99.90;;;;;;5096197;28;20043;-63
2022/03/27 10:05:12;;;;;;;22.90;14.10;;;12.30;99.90;;;;;;5108505;28;20335;-64
2022/03/27 10:07:44;;;;;;;23.40;12.27;;;12.30;99.90;;;;;;5108329;28;20376;-62
2022/03/27 10:10:12;;;;;;;22.98;13.40;;;12.40;99.90;;;;;;5109694;28;20023;-64
2022/03/27 10:12:40;;;;;;;22.33;13.40;;;12.40;99.90;;;;;;5107744;28;20039;-64
2022/03/27 10:15:12;;;;;;;22.98;14.60;;;12.50;99.90;;;;;;5104404;28;20122;-58
2022/03/27 10:17:39;;;;;;;21.63;12.80;;;12.60;99.90;;;;;;5100797;28;20487;-60
2022/03/27 10:20:13;;;;;;;24.05;13.63;;;12.70;99.90;;;;;;5099623;28;20034;-61
2022/03/27 10:22:46;;;;;;;22.60;12.98;;;12.80;99.30;;;;;;5095744;28;20023;-60
2022/03/27 10:25:14;;;;;;;24.08;13.15;;;12.90;99.40;;;;;;5101897;28;20391;-63
2022/03/27 10:27:41;;;;;;;25.83;15.17;;;12.80;99.20;;;;;;5111641;28;20031;-62
2022/03/27 10:30:08;;;;;;;22.42;13.00;;;13.00;99.20;;;;;;5111184;28;20028;-59
2022/03/27 10:32:35;;;;;;;23.25;12.95;;;12.90;98.70;;;;;;5101199;28;20539;-56
2022/03/27 10:35:03;;;;;;;20.83;12.60;;;12.70;98.30;;;;;;5090232;28;20089;-60
2022/03/27 10:37:35;;;;;;;;;;;13.00;98.50;;;;;;5090455;28;20016;-58
2022/03/27 10:40:11;;;;;;;22.85;13.70;;;13.20;98.00;;;;;;5089256;28;20307;-58
2022/03/27 10:42:59;;;;;;;22.52;13.27;;;13.40;97.70;;;;;;5089301;28;20127;-57
2022/03/27 10:45:25;;;;;;;23.40;13.98;;;13.40;97.20;;;;;;5090898;28;20553;-61
2022/03/27 10:48:12;;;;;;;22.55;13.77;;;13.40;96.90;;;;;;5089750;28;20299;-59
2022/03/27 10:50:52;;;;;;;30.98;18.40;;;13.50;96.80;;;;;;5102792;28;20088;-64
2022/03/27 10:53:24;;;;;;;23.92;14.68;;;13.80;96.20;;;;;;5111265;28;20024;-63
2022/03/27 10:55:53;;;;;;;22.48;14.00;;;13.90;96.10;;;;;;5111827;28;20079;-61
2022/03/27 10:58:30;;;;;;;21.45;13.63;;;14.10;95.50;;;;;;5111970;28;20020;-63
2022/03/27 11:00:57;;;;;;;25.83;14.07;;;14.10;95.20;;;;;;5111366;28;20038;-62
2022/03/27 11:03:46;;;;;;;23.70;14.63;;;14.20;95.60;;;;;;5110937;28;20070;-62
2022/03/27 11:06:31;;;;;;;23.17;13.75;;;14.30;94.00;;;;;;5110951;28;20020;-61
2022/03/27 11:08:59;;;;;;;21.13;12.35;;;14.50;94.20;;;;;;5111001;28;20489;-63
2022/03/27 11:11:38;;;;;;;24.00;15.32;;;14.60;94.00;;;;;;5110722;28;20399;-63
2022/03/27 11:14:05;;;;;;;21.60;13.50;;;15.00;92.80;;;;;;5110654;28;20036;-63
2022/03/27 11:16:33;;;;;;;22.27;13.52;;;15.50;91.50;;;;;;5110436;28;20043;-63
2022/03/27 11:18:59;;;;;;;22.83;13.60;;;16.30;91.30;;;;;;5111042;28;20023;-63
2022/03/27 11:21:27;;;;;;;23.00;14.27;;;17.40;89.40;;;;;;5110524;28;20403;-64
2022/03/27 11:24:03;;;;;;;21.63;13.60;;;18.10;86.30;;;;;;5110497;28;20024;-63
2022/03/27 11:26:32;;;;;;;22.17;13.88;;;18.60;84.10;;;;;;5110912;28;20483;-63
2022/03/27 11:29:05;;;;;;;23.27;14.13;;;19.20;81.00;;;;;;5110801;28;20039;-64
2022/03/27 11:31:35;;;;;;;24.58;13.45;;;19.60;76.90;;;;;;5109703;28;20094;-63
2022/03/27 11:34:14;;;;;;;20.67;13.50;;;20.40;74.00;;;;;;5108950;28;20100;-62
2022/03/27 11:36:41;;;;;;;21.38;14.45;;;20.90;69.50;;;;;;5109414;28;20022;-63
2022/03/27 11:39:13;;;;;;;23.40;14.35;;;21.10;67.40;;;;;;4391652;28;10020704;-60
2022/03/27 11:41:44;;;;;;;23.40;14.00;;;20.30;65.00;;;;;;5099874;28;20436;-62
2022/03/27 11:47:19;;;;;;;22.45;15.25;;;21.00;67.00;;;;;;5100937;28;20030;-60
2022/03/27 11:49:46;;;;;;;21.42;14.75;;;21.50;63.70;;;;;;5093329;28;20036;-61
2022/03/27 11:52:14;;;;;;;20.58;14.00;;;21.50;64.20;;;;;;5109206;28;20122;-61
2022/03/27 11:54:40;;;;;;;21.38;14.27;;;21.80;61.80;;;;;;5111069;28;20441;-61
2022/03/27 11:57:07;;;;;;;21.33;14.57;;;22.80;60.30;;;;;;5111259;28;20110;-65
2022/03/27 11:59:50;;;;;;;23.40;16.23;;;23.20;58.20;;;;;;5111098;28;20447;-63
2022/03/27 12:02:17;;;;;;;24.48;15.65;;;23.50;58.00;;;;;;5111678;28;20760;-63
2022/03/27 12:04:52;;;;;;;23.08;15.18;;;22.30;57.90;;;;;;5111155;28;20102;-63
2022/03/27 12:07:18;;;;;;;23.02;15.57;;;22.30;57.70;;;;;;5111016;28;20031;-64
2022/03/27 12:09:44;;;;;;;23.10;15.40;;;22.50;57.90;;;;;;5109236;28;20024;-64
2022/03/27 12:12:14;;;;;;;23.25;16.45;;;23.30;57.60;;;;;;5109632;28;20042;-63
2022/03/27 12:14:54;;;;;;;23.45;16.40;;;24.10;57.60;;;;;;5110653;28;20104;-64
2022/03/27 12:17:24;;;;;;;22.42;15.52;;;24.60;55.40;;;;;;5109127;28;20042;-62
2022/03/27 12:20:16;;;;;;;23.92;16.83;;;25.10;54.40;;;;;;5110506;28;20501;-65
2022/03/27 12:22:49;;;;;;;22.60;15.27;;;25.10;53.20;;;;;;5105334;28;20399;-64
2022/03/27 12:25:14;;;;;;;22.17;15.70;;;24.50;52.10;;;;;;5109168;28;20147;-64
2022/03/27 12:30:37;;;;;;;21.10;15.32;;;25.40;51.60;;;;;;5054040;28;20052;-63
2022/03/27 12:33:04;;;;;;;22.00;14.93;;;25.50;51.50;;;;;;5110257;28;20051;-64
2022/03/27 12:35:31;;;;;;;23.30;16.48;;;26.40;51.30;;;;;;5110470;28;20475;-63
2022/03/27 12:37:57;;;;;;;22.83;15.43;;;26.20;49.90;;;;;;5100454;28;20486;-63
2022/03/27 12:40:24;;;;;;;22.33;15.23;;;25.50;49.70;;;;;;5109904;28;20027;-63
2022/03/27 12:42:52;;;;;;;27.25;16.52;;;25.70;51.10;;;;;;5100395;22;20505;-62
2022/03/27 12:45:27;;;;;;;21.73;15.67;;;25.80;50.80;;;;;;5049490;28;20082;-57
2022/03/27 12:48:12;;;;;;;24.67;17.05;;;26.60;49.50;;;;;;5050697;28;20080;-63
2022/03/27 12:50:42;;;;;;;23.25;16.35;;;26.00;49.20;;;;;;5051094;28;20067;-61
2022/03/27 12:53:23;;;;;;;23.38;16.10;;;25.60;49.50;;;;;;5051055;28;20047;-63